createdAt,value
2019-03-06T00:00:46.988Z,49.10
2019-03-06T00:03:20.291Z,48.21
2019-03-06T00:05:53.519Z,49.27
2019-03-06T00:08:35.278Z,49.77
2019-03-06T00:11:21.266Z,49.11
2019-03-06T00:13:58.426Z,48.66
2019-03-06T00:17:08.635Z,49.87
2019-03-06T00:19:53.035Z,49.26
2019-03-06T00:22:25.873Z,50.51
2019-03-06T00:24:59.934Z,50.18
2019-03-06T00:27:32.187Z,49.42
2019-03-06T00:30:12.669Z,48.80
2019-03-06T00:35:47.607Z,49.35
2019-03-06T00:38:23.951Z,50.72
2019-03-06T00:41:28.275Z,50.58
2019-03-06T00:44:06.425Z,50.46
2019-03-06T00:46:38.143Z,51.00
2019-03-06T00:49:12.087Z,50.67
2019-03-06T00:51:42.760Z,50.11
2019-03-06T00:54:48.689Z,49.98
2019-03-06T00:57:26.941Z,50.05
2019-03-06T01:00:21.349Z,49.70
2019-03-06T01:02:53.959Z,49.27
2019-03-06T01:05:34.873Z,49.84
2019-03-06T01:08:05.140Z,50.71
2019-03-06T01:10:38.864Z,49.73
2019-03-06T01:13:23.234Z,50.00
2019-03-06T01:15:57.279Z,50.76
2019-03-06T01:18:30.886Z,52.07
2019-03-06T01:21:06.240Z,52.26
2019-03-06T01:23:42.803Z,50.63
2019-03-06T01:26:16.482Z,52.05
2019-03-06T01:28:53.616Z,52.94
2019-03-06T01:31:25.623Z,53.00
2019-03-06T01:34:16.774Z,53.31
2019-03-06T01:37:03.644Z,54.20
2019-03-06T01:39:53.161Z,53.35
2019-03-06T01:43:07.777Z,54.73
2019-03-06T01:45:45.863Z,53.58
2019-03-06T01:48:21.853Z,54.15
2019-03-06T01:50:56.323Z,53.76
2019-03-06T01:53:47.553Z,55.03
2019-03-06T01:56:19.166Z,54.45
2019-03-06T01:58:51.690Z,54.42
2019-03-06T02:01:24.313Z,54.79
2019-03-06T02:03:56.185Z,55.59
2019-03-06T02:06:29.573Z,56.07
2019-03-06T02:09:07.363Z,56.38
2019-03-06T02:11:45.521Z,56.67
2019-03-06T02:14:19.610Z,54.61
2019-03-06T02:16:52.372Z,53.70
2019-03-06T02:19:26.733Z,55.39
2019-03-06T02:22:06.236Z,56.63
2019-03-06T02:24:59.090Z,56.84
2019-03-06T02:27:31.020Z,55.31
2019-03-06T02:30:02.580Z,54.55
2019-03-06T02:32:33.095Z,56.49
2019-03-06T02:35:06.708Z,55.24
2019-03-06T02:37:41.063Z,55.25
2019-03-06T02:40:13.039Z,53.82
2019-03-06T02:42:46.984Z,54.27
2019-03-06T02:45:21.242Z,53.78
2019-03-06T02:47:52.138Z,53.94
2019-03-06T02:50:25.151Z,54.26
2019-03-06T02:53:01.329Z,53.74
2019-03-06T02:55:34.736Z,54.72
2019-03-06T02:58:18.437Z,54.01
2019-03-06T03:01:22.702Z,53.40
2019-03-06T03:04:04.788Z,54.18
2019-03-06T03:06:59.034Z,53.99
2019-03-06T03:09:32.724Z,53.19
2019-03-06T03:12:07.430Z,52.83
2019-03-06T03:14:45.511Z,52.52
2019-03-06T03:20:14.237Z,54.78
2019-03-06T03:22:48.269Z,55.20
2019-03-06T03:25:22.493Z,54.10
2019-03-06T03:28:03.472Z,53.90
2019-03-06T03:30:37.370Z,54.53
2019-03-06T03:33:13.449Z,54.75
2019-03-06T03:35:51.730Z,55.47
2019-03-06T03:38:49.266Z,55.89
2019-03-06T03:41:21.779Z,55.18
2019-03-06T03:43:56.676Z,55.25
2019-03-06T03:46:33.703Z,55.50
2019-03-06T03:49:08.409Z,55.04
2019-03-06T03:51:45.964Z,55.37
2019-03-06T03:54:21.080Z,57.13
2019-03-06T03:56:54.216Z,55.91
2019-03-06T03:59:39.382Z,55.36
2019-03-06T04:02:14.015Z,55.99
2019-03-06T04:04:49.421Z,57.46
2019-03-06T04:07:23.445Z,56.75
2019-03-06T04:09:55.745Z,56.64
2019-03-06T04:12:26.310Z,57.06
2019-03-06T04:14:58.532Z,56.75
2019-03-06T04:17:30.719Z,58.22
2019-03-06T04:20:08.228Z,57.29
2019-03-06T04:22:41.278Z,57.29
2019-03-06T04:25:15.333Z,56.26
2019-03-06T04:27:48.482Z,55.56
2019-03-06T04:30:24.602Z,55.97
2019-03-06T04:32:57.638Z,54.81
2019-03-06T04:35:31.073Z,55.52
2019-03-06T04:38:02.487Z,54.67
2019-03-06T04:40:36.326Z,54.34
2019-03-06T04:43:12.701Z,55.75
2019-03-06T04:45:44.055Z,55.38
2019-03-06T04:48:18.807Z,55.29
2019-03-06T04:50:52.928Z,54.91
2019-03-06T04:53:28.205Z,55.06
2019-03-06T04:56:01.234Z,56.55
2019-03-06T04:58:36.124Z,56.01
2019-03-06T05:01:08.844Z,54.92
2019-03-06T05:03:40.686Z,57.04
2019-03-06T05:06:18.086Z,56.44
2019-03-06T05:08:49.244Z,55.21
2019-03-06T05:11:31.940Z,55.39
2019-03-06T05:14:28.070Z,54.70
2019-03-06T05:17:22.828Z,54.25
2019-03-06T05:19:59.649Z,54.39
2019-03-06T05:22:30.506Z,54.59
2019-03-06T05:25:06.644Z,53.63
2019-03-06T05:27:42.448Z,55.02
2019-03-06T05:30:16.338Z,54.18
2019-03-06T05:32:50.563Z,53.03
2019-03-06T05:35:36.179Z,54.03
2019-03-06T05:38:14.348Z,53.82
2019-03-06T05:40:45.374Z,55.00
2019-03-06T05:43:21.854Z,55.76
2019-03-06T05:46:05.614Z,57.37
2019-03-06T05:48:39.526Z,55.70
2019-03-06T05:51:14.582Z,56.33
2019-03-06T05:53:46.193Z,56.78
2019-03-06T05:56:18.868Z,57.02
2019-03-06T05:58:51.505Z,55.39
2019-03-06T06:01:25.003Z,57.52
2019-03-06T06:03:56.746Z,57.78
2019-03-06T06:06:32.304Z,56.92
2019-03-06T06:09:08.802Z,56.68
2019-03-06T06:11:41.772Z,56.14
2019-03-06T06:14:15.760Z,56.31
2019-03-06T06:16:50.281Z,56.02
2019-03-06T06:19:26.141Z,57.82
2019-03-06T06:22:17.971Z,57.66
2019-03-06T06:24:55.166Z,57.39
2019-03-06T06:27:28.535Z,57.03
2019-03-06T06:30:02.944Z,58.54
2019-03-06T06:32:37.286Z,56.70
2019-03-06T06:35:41.827Z,58.22
2019-03-06T06:38:24.103Z,55.56
2019-03-06T06:40:56.504Z,58.17
2019-03-06T06:43:28.636Z,56.46
2019-03-06T06:46:02.684Z,55.77
2019-03-06T06:48:33.791Z,55.58
2019-03-06T06:51:56.636Z,56.31
2019-03-06T06:54:51.337Z,55.12
2019-03-06T06:57:59.309Z,55.86
2019-03-06T07:01:11.550Z,55.16
2019-03-06T07:04:19.395Z,55.18
2019-03-06T07:07:14.544Z,56.25
2019-03-06T07:10:08.906Z,55.17
2019-03-06T07:12:57.409Z,55.91
2019-03-06T07:15:56.041Z,56.49
2019-03-06T07:18:40.840Z,57.16
2019-03-06T07:21:19.842Z,56.88
2019-03-06T07:24:06.621Z,56.50
2019-03-06T07:26:57.276Z,56.61
2019-03-06T07:29:53.884Z,54.69
2019-03-06T07:32:45.375Z,54.58
2019-03-06T07:36:07.685Z,55.18
2019-03-06T07:38:40.637Z,53.56
2019-03-06T07:41:31.552Z,53.92
2019-03-06T07:44:29.772Z,54.19
2019-03-06T07:47:22.014Z,54.80
2019-03-06T07:50:15.028Z,54.56
2019-03-06T07:53:42.877Z,52.70
2019-03-06T07:56:30.169Z,53.40
2019-03-06T07:59:03.030Z,52.51
2019-03-06T08:01:38.067Z,55.38
2019-03-06T08:04:29.733Z,54.83
2019-03-06T08:07:16.137Z,53.35
2019-03-06T08:09:51.474Z,52.09
2019-03-06T08:12:47.336Z,52.90
2019-03-06T08:15:58.281Z,52.14
2019-03-06T08:18:39.975Z,51.43
2019-03-06T08:21:30.243Z,50.50
2019-03-06T08:24:25.458Z,51.46
2019-03-06T08:27:08.615Z,51.80
2019-03-06T08:29:44.529Z,50.88
2019-03-06T08:32:37.301Z,50.21
2019-03-06T08:35:11.070Z,50.39
2019-03-06T08:37:43.816Z,50.59
2019-03-06T08:40:27.831Z,50.73
2019-03-06T08:43:01.093Z,50.12
2019-03-06T08:45:46.269Z,50.10
2019-03-06T08:48:34.935Z,50.10
2019-03-06T08:54:23.065Z,48.36
2019-03-06T08:57:17.502Z,47.79
2019-03-06T09:00:06.099Z,46.86
2019-03-06T09:02:59.158Z,47.08
2019-03-06T09:05:51.070Z,47.32
2019-03-06T09:08:40.435Z,45.82
2019-03-06T09:11:23.081Z,45.64
2019-03-06T09:14:17.308Z,46.83
2019-03-06T09:17:30.361Z,45.90
2019-03-06T09:23:43.374Z,46.14
2019-03-06T09:26:42.463Z,46.15
2019-03-06T09:29:36.449Z,47.21
2019-03-06T09:32:22.461Z,46.07
2019-03-06T09:40:18.531Z,46.45
2019-03-06T09:43:07.806Z,45.98
2019-03-06T09:46:45.841Z,45.30
2019-03-06T09:49:32.950Z,45.34
2019-03-06T10:28:11.873Z,44.93
2019-03-06T10:30:47.242Z,44.69
2019-03-06T10:33:31.327Z,44.91
2019-03-06T10:36:04.704Z,43.48
2019-03-06T10:38:41.724Z,44.29
2019-03-06T10:41:13.492Z,42.66
2019-03-06T10:43:49.684Z,42.70
2019-03-06T10:46:23.305Z,41.56
2019-03-06T10:48:56.135Z,41.17
2019-03-06T10:51:30.973Z,40.97
2019-03-06T10:54:06.372Z,41.55
2019-03-06T10:56:40.088Z,41.66
2019-03-06T10:59:11.401Z,42.01
2019-03-06T11:01:45.793Z,40.99
2019-03-06T11:04:33.381Z,41.70
2019-03-06T11:07:04.838Z,41.24
2019-03-06T11:09:41.013Z,39.75
2019-03-06T11:12:27.027Z,40.09
2019-03-06T11:15:02.302Z,39.78
2019-03-06T11:17:37.021Z,39.97
2019-03-06T11:20:21.633Z,40.02
2019-03-06T11:22:54.883Z,39.94
2019-03-06T11:25:31.826Z,39.05
2019-03-06T11:28:05.839Z,39.46
2019-03-06T11:30:54.257Z,38.40
2019-03-06T11:33:31.050Z,38.63
2019-03-06T11:36:02.200Z,37.62
2019-03-06T11:38:37.305Z,39.25
2019-03-06T11:41:11.306Z,38.28
2019-03-06T11:43:46.713Z,37.46
2019-03-06T11:46:22.139Z,37.78
2019-03-06T11:48:54.571Z,38.96
2019-03-06T11:51:25.852Z,37.76
2019-03-06T11:54:03.970Z,38.12
2019-03-06T11:56:38.755Z,38.72
2019-03-06T11:59:13.814Z,38.61
2019-03-06T12:01:49.047Z,38.48
2019-03-06T12:04:22.753Z,38.69
2019-03-06T12:07:22.594Z,38.48
2019-03-06T12:09:55.666Z,38.42
2019-03-06T12:12:30.627Z,37.75
2019-03-06T12:15:07.300Z,37.34
2019-03-06T12:17:45.295Z,37.03
2019-03-06T12:20:20.635Z,36.15
2019-03-06T12:22:52.745Z,36.05
2019-03-06T12:25:25.880Z,35.78
2019-03-06T12:28:01.061Z,37.05
2019-03-06T12:30:33.013Z,36.94
2019-03-06T12:33:08.431Z,36.69
2019-03-06T12:35:41.964Z,37.71
2019-03-06T12:38:15.861Z,36.54
2019-03-06T12:40:46.499Z,36.00
2019-03-06T12:43:18.869Z,35.96
2019-03-06T12:46:23.000Z,35.83
2019-03-06T12:48:53.647Z,37.21
2019-03-06T12:51:29.781Z,36.33
2019-03-06T12:54:03.522Z,36.63
2019-03-06T12:56:40.756Z,36.81
2019-03-06T12:59:11.542Z,36.21
2019-03-06T13:01:43.725Z,36.83
2019-03-06T13:04:14.232Z,37.35
2019-03-06T13:06:55.173Z,38.43
2019-03-06T13:09:34.079Z,37.92
2019-03-06T13:12:16.603Z,38.08
2019-03-06T13:14:51.431Z,40.76
2019-03-06T13:17:29.036Z,40.96
2019-03-06T13:20:01.510Z,40.85
2019-03-06T13:22:34.968Z,40.74
2019-03-06T13:25:06.267Z,39.81
2019-03-06T13:27:40.149Z,40.87
2019-03-06T13:30:12.632Z,40.26
2019-03-06T13:33:00.754Z,39.57
2019-03-06T13:35:35.844Z,38.16
2019-03-06T13:38:16.049Z,38.77
2019-03-06T13:40:50.179Z,38.09
2019-03-06T13:43:24.831Z,38.80
2019-03-06T13:45:58.362Z,37.78
2019-03-06T13:48:50.725Z,37.98
2019-03-06T13:51:22.794Z,37.38
2019-03-06T13:53:56.709Z,37.52
2019-03-06T13:56:29.425Z,36.79
2019-03-06T13:59:03.205Z,36.60
2019-03-06T14:01:33.950Z,36.87
2019-03-06T14:04:07.223Z,37.19
2019-03-06T14:06:44.457Z,36.91
2019-03-06T14:09:21.295Z,36.49
2019-03-06T14:11:51.884Z,35.89
2019-03-06T14:14:23.258Z,36.83
2019-03-06T14:16:56.157Z,36.66
2019-03-06T14:19:29.538Z,36.51
2019-03-06T14:22:13.015Z,36.32
2019-03-06T14:24:52.600Z,36.29
2019-03-06T14:27:28.582Z,35.86
2019-03-06T14:30:02.467Z,35.28
2019-03-06T14:32:34.940Z,36.01
2019-03-06T14:35:08.403Z,35.62
2019-03-06T14:37:40.900Z,35.61
2019-03-06T14:40:28.830Z,35.63
2019-03-06T14:43:01.676Z,36.01
2019-03-06T14:45:32.683Z,36.68
2019-03-06T14:48:09.368Z,37.34
2019-03-06T14:50:40.988Z,37.13
2019-03-06T14:53:17.833Z,36.91
2019-03-06T14:55:53.586Z,36.54
2019-03-06T14:58:49.169Z,36.35
2019-03-06T15:01:43.968Z,36.53
2019-03-06T15:04:18.437Z,36.23
2019-03-06T15:06:54.679Z,36.52
2019-03-06T15:09:32.462Z,36.60
2019-03-06T15:12:08.789Z,35.92
2019-03-06T15:14:41.403Z,36.60
2019-03-06T15:17:14.322Z,35.91
2019-03-06T15:19:44.612Z,36.54
2019-03-06T15:25:48.520Z,35.72
2019-03-06T15:29:09.122Z,35.62
2019-03-06T15:31:51.661Z,35.65
2019-03-06T15:34:29.049Z,35.33
2019-03-06T15:43:46.495Z,36.12
2019-03-06T15:46:18.162Z,35.10
2019-03-06T15:48:50.652Z,35.20
2019-03-06T15:51:24.820Z,35.03
2019-03-06T15:53:57.201Z,35.00
2019-03-06T15:56:31.797Z,35.20
2019-03-06T15:59:04.870Z,34.51
2019-03-06T16:01:46.722Z,34.41
2019-03-06T16:04:18.693Z,34.69
2019-03-06T16:06:59.496Z,35.42
2019-03-06T16:09:43.968Z,35.37
2019-03-06T16:12:27.417Z,35.40
2019-03-06T16:15:31.561Z,36.18
2019-03-06T16:18:39.820Z,36.30
2019-03-06T16:24:53.899Z,37.21
2019-03-06T16:28:42.789Z,36.77
2019-03-06T16:31:18.976Z,38.01
2019-03-06T16:34:40.901Z,37.24
2019-03-06T16:37:14.689Z,36.49
2019-03-06T16:40:17.314Z,36.29
2019-03-06T16:42:53.636Z,37.33
2019-03-06T16:45:27.016Z,37.45
2019-03-06T16:47:57.961Z,37.52
2019-03-06T16:50:52.994Z,37.44
2019-03-06T17:02:47.623Z,39.21
2019-03-06T17:05:46.403Z,39.34
2019-03-06T17:08:19.551Z,39.11
2019-03-06T17:11:27.194Z,38.95
2019-03-06T17:13:58.875Z,38.48
2019-03-06T17:16:31.038Z,38.95
2019-03-06T17:19:21.417Z,38.59
2019-03-06T17:22:36.420Z,39.24
2019-03-06T17:25:14.945Z,38.58
2019-03-06T17:28:33.194Z,39.33
2019-03-06T17:31:33.437Z,39.77
2019-03-06T17:34:31.325Z,40.52
2019-03-06T17:37:28.259Z,40.88
2019-03-06T17:43:02.637Z,39.74
2019-03-06T17:46:04.036Z,41.59
2019-03-06T17:48:54.296Z,42.30
2019-03-06T17:52:02.845Z,42.04
2019-03-06T17:55:01.028Z,41.75
2019-03-06T17:57:49.867Z,41.51
2019-03-06T18:00:36.714Z,42.03
2019-03-06T18:03:33.338Z,42.38
2019-03-06T18:06:09.961Z,43.15
2019-03-06T18:08:55.338Z,42.26
2019-03-06T18:11:38.391Z,41.98
2019-03-06T18:14:50.481Z,42.66
2019-03-06T18:17:34.321Z,42.38
2019-03-06T18:20:15.005Z,42.42
2019-03-06T18:23:29.122Z,43.94
2019-03-06T18:26:33.149Z,44.55
2019-03-06T18:32:36.075Z,45.81
2019-03-06T18:38:07.012Z,46.35
2019-03-06T18:41:19.205Z,45.57
2019-03-06T18:44:02.184Z,44.91
2019-03-06T18:46:49.613Z,44.04
2019-03-06T18:49:33.091Z,43.70
2019-03-06T18:52:06.565Z,44.96
2019-03-06T18:54:47.829Z,44.63
2019-03-06T18:57:31.921Z,44.28
2019-03-06T19:00:18.467Z,45.68
2019-03-06T19:03:12.419Z,44.63
2019-03-06T19:06:09.216Z,44.52
2019-03-06T19:08:52.786Z,44.62
2019-03-06T19:11:27.724Z,44.49
2019-03-06T19:15:00.778Z,45.01
2019-03-06T19:17:56.853Z,43.94
2019-03-06T19:20:51.248Z,45.06
2019-03-06T19:24:08.771Z,44.98
2019-03-06T19:26:44.737Z,44.71
2019-03-06T19:33:05.755Z,44.83
2019-03-06T19:35:39.584Z,44.83
2019-03-06T19:38:16.665Z,46.06
2019-03-06T19:40:53.235Z,46.07
2019-03-06T19:43:39.104Z,46.32
2019-03-06T19:46:14.467Z,45.58
2019-03-06T19:49:06.686Z,44.92
2019-03-06T19:55:03.902Z,45.22
2019-03-06T20:02:06.106Z,45.87
2019-03-06T20:04:53.589Z,45.71
2019-03-06T20:07:30.112Z,46.02
2019-03-06T20:10:07.957Z,44.76
2019-03-06T20:12:42.911Z,44.87
2019-03-06T20:15:25.852Z,44.83
2019-03-06T20:18:02.717Z,45.66
2019-03-06T20:20:40.205Z,44.96
2019-03-06T20:23:15.064Z,44.19
2019-03-06T20:25:52.015Z,44.99
2019-03-06T20:28:27.417Z,44.53
2019-03-06T20:31:02.508Z,44.79
2019-03-06T20:33:41.127Z,44.98
2019-03-06T20:36:18.416Z,44.21
2019-03-06T20:38:51.841Z,43.70
2019-03-06T20:41:26.858Z,43.65
2019-03-06T20:43:59.139Z,45.01
2019-03-06T20:46:33.720Z,44.32
2019-03-06T20:49:12.855Z,44.00
2019-03-06T20:51:55.160Z,44.13
2019-03-06T20:54:28.759Z,45.76
2019-03-06T20:56:59.916Z,44.44
2019-03-06T20:59:40.208Z,44.29
2019-03-06T21:02:21.124Z,43.95
2019-03-06T21:04:57.982Z,44.17
2019-03-06T21:07:44.933Z,43.44
2019-03-06T21:10:14.132Z,43.33
2019-03-06T21:12:45.311Z,43.59
2019-03-06T21:15:20.673Z,43.58
2019-03-06T21:18:33.612Z,43.36
2019-03-06T21:21:53.305Z,43.32
2019-03-06T21:28:26.455Z,43.33
2019-03-06T21:31:26.623Z,43.03
2019-03-06T21:34:04.193Z,42.77
2019-03-06T21:40:36.022Z,42.27
2019-03-06T21:43:19.716Z,42.36
2019-03-06T21:49:49.932Z,42.56
2019-03-06T21:52:49.237Z,42.81
2019-03-06T21:55:38.552Z,44.46
2019-03-06T21:58:29.530Z,43.44
2019-03-06T22:04:22.627Z,44.45
2019-03-06T22:07:00.061Z,45.01
2019-03-06T22:12:51.642Z,44.59
2019-03-06T22:15:35.587Z,44.61
2019-03-06T22:18:25.135Z,44.53
2019-03-06T22:21:19.021Z,43.94
2019-03-06T22:23:56.236Z,44.56
2019-03-06T22:39:14.986Z,44.55
2019-03-06T22:53:38.922Z,44.64
2019-03-06T22:56:49.968Z,46.56
2019-03-06T22:59:51.903Z,47.29
2019-03-06T23:05:58.166Z,45.76
2019-03-06T23:16:46.859Z,45.19
2019-03-06T23:19:52.548Z,46.47
2019-03-06T23:22:36.916Z,46.07
2019-03-06T23:29:26.455Z,45.52
2019-03-06T23:44:52.691Z,48.52
2019-03-06T23:48:07.559Z,50.53
2019-03-06T23:50:52.142Z,49.78
2019-03-06T23:53:45.805Z,50.13
2019-03-06T23:56:59.436Z,50.80
2019-03-06T23:59:37.646Z,50.45
